createdAt,value
2022-09-07T00:01:48.255Z,2.33
2022-09-07T00:04:25.646Z,2.38
2022-09-07T00:06:58.051Z,2.42
2022-09-07T00:09:26.448Z,2.45
2022-09-07T00:11:59.742Z,2.50
2022-09-07T00:14:29.417Z,2.80
2022-09-07T00:17:00.582Z,2.42
2022-09-07T00:19:36.072Z,2.42
2022-09-07T00:22:11.297Z,3.03
2022-09-07T00:24:39.693Z,2.78
2022-09-07T00:27:17.302Z,3.17
2022-09-07T00:29:46.046Z,3.08
2022-09-07T00:32:17.070Z,2.78
2022-09-07T00:34:49.433Z,3.00
2022-09-07T00:37:28.142Z,3.25
2022-09-07T00:39:56.872Z,3.58
2022-09-07T00:42:28.310Z,3.58
2022-09-07T00:45:15.359Z,4.03
2022-09-07T00:47:50.227Z,4.00
2022-09-07T00:50:23.144Z,4.13
2022-09-07T00:52:57.763Z,4.05
2022-09-07T00:55:27.635Z,3.78
2022-09-07T00:57:57.446Z,3.60
2022-09-07T01:00:25.845Z,3.63
2022-09-07T01:03:01.881Z,2.80
2022-09-07T01:05:34.857Z,3.50
2022-09-07T01:08:05.473Z,3.80
2022-09-07T01:10:33.759Z,3.10
2022-09-07T01:13:02.242Z,3.88
2022-09-07T01:15:43.751Z,3.22
2022-09-07T01:18:33.605Z,3.38
2022-09-07T01:21:23.217Z,3.67
2022-09-07T01:24:21.227Z,3.60
2022-09-07T01:27:31.923Z,3.75
2022-09-07T01:30:06.198Z,3.70
2022-09-07T01:35:26.992Z,3.72
2022-09-07T01:38:08.472Z,3.30
2022-09-07T01:40:46.248Z,3.72
2022-09-07T01:43:19.945Z,3.80
2022-09-07T01:45:59.997Z,3.88
2022-09-07T01:48:29.117Z,3.92
2022-09-07T01:51:05.312Z,3.80
2022-09-07T01:53:39.469Z,3.53
2022-09-07T01:58:42.136Z,3.78
2022-09-07T02:01:33.023Z,3.50
2022-09-07T02:04:14.194Z,3.90
2022-09-07T02:06:50.240Z,3.53
2022-09-07T02:09:24.157Z,3.92
2022-09-07T02:11:55.737Z,4.10
2022-09-07T02:14:31.192Z,3.65
2022-09-07T02:17:05.548Z,3.72
2022-09-07T02:19:39.112Z,3.65
2022-09-07T02:22:17.482Z,4.05
2022-09-07T02:24:50.055Z,4.20
2022-09-07T02:27:32.674Z,3.70
2022-09-07T02:30:00.817Z,3.47
2022-09-07T02:32:30.572Z,3.38
2022-09-07T02:34:58.689Z,4.20
2022-09-07T02:37:37.396Z,6.00
2022-09-07T02:40:06.756Z,6.50
2022-09-07T02:42:36.408Z,6.93
2022-09-07T02:45:11.021Z,6.15
2022-09-07T02:48:17.487Z,5.07
2022-09-07T02:51:19.554Z,4.10
2022-09-07T02:54:31.791Z,2.72
2022-09-07T02:57:10.197Z,3.63
2022-09-07T02:59:47.475Z,3.20
2022-09-07T03:02:36.320Z,3.20
2022-09-07T03:05:21.150Z,3.47
2022-09-07T03:07:56.151Z,2.60
2022-09-07T03:10:25.540Z,3.00
2022-09-07T03:12:53.503Z,3.80
2022-09-07T03:15:23.219Z,2.88
2022-09-07T03:17:52.083Z,3.13
2022-09-07T03:20:24.927Z,2.63
2022-09-07T03:23:02.527Z,2.53
2022-09-07T03:25:33.541Z,2.97
2022-09-07T03:28:04.789Z,3.17
2022-09-07T03:30:44.257Z,3.38
2022-09-07T03:33:12.731Z,2.97
2022-09-07T03:35:42.212Z,3.10
2022-09-07T03:38:13.136Z,2.92
2022-09-07T03:40:45.862Z,2.75
2022-09-07T03:43:13.982Z,3.10
2022-09-07T03:45:44.946Z,3.10
2022-09-07T03:48:22.571Z,2.80
2022-09-07T03:51:03.364Z,2.90
2022-09-07T03:53:32.916Z,2.58
2022-09-07T03:56:08.917Z,3.03
2022-09-07T03:58:37.374Z,2.78
2022-09-07T04:01:07.762Z,2.83
2022-09-07T04:03:36.510Z,2.88
2022-09-07T04:06:07.591Z,2.40
2022-09-07T04:08:38.748Z,2.75
2022-09-07T04:11:13.981Z,2.88
2022-09-07T04:13:47.871Z,2.78
2022-09-07T04:16:19.733Z,2.90
2022-09-07T04:18:49.688Z,2.83
2022-09-07T04:21:19.609Z,2.83
2022-09-07T04:23:47.774Z,3.13
2022-09-07T04:26:20.589Z,2.65
2022-09-07T04:28:49.417Z,2.55
2022-09-07T04:31:33.215Z,2.80
2022-09-07T04:34:01.857Z,3.05
2022-09-07T04:36:31.374Z,2.17
2022-09-07T04:39:01.412Z,2.80
2022-09-07T04:41:31.207Z,2.45
2022-09-07T04:44:04.008Z,2.40
2022-09-07T04:46:34.566Z,2.67
2022-09-07T04:49:04.844Z,2.38
2022-09-07T04:51:34.862Z,2.63
2022-09-07T04:54:06.401Z,2.47
2022-09-07T04:56:42.440Z,2.45
2022-09-07T04:59:16.945Z,2.78
2022-09-07T05:01:45.190Z,3.03
2022-09-07T05:04:19.364Z,2.80
2022-09-07T05:06:51.656Z,2.88
2022-09-07T05:09:19.804Z,2.88
2022-09-07T05:11:51.143Z,3.40
2022-09-07T05:14:40.203Z,3.42
2022-09-07T05:17:08.872Z,2.67
2022-09-07T05:19:36.999Z,3.28
2022-09-07T05:22:09.874Z,3.55
2022-09-07T05:24:37.929Z,3.38
2022-09-07T05:27:08.851Z,3.40
2022-09-07T05:32:28.108Z,3.60
2022-09-07T05:34:56.244Z,3.17
2022-09-07T05:37:25.957Z,3.45
2022-09-07T05:39:57.340Z,3.67
2022-09-07T05:42:26.762Z,3.78
2022-09-07T05:44:55.062Z,3.97
2022-09-07T05:47:26.092Z,4.05
2022-09-07T05:49:56.990Z,4.32
2022-09-07T05:52:26.993Z,4.18
2022-09-07T05:55:03.209Z,4.22
2022-09-07T05:57:53.408Z,4.38
2022-09-07T06:00:25.445Z,4.40
2022-09-07T06:02:56.506Z,5.63
2022-09-07T06:05:28.125Z,5.15
2022-09-07T06:07:57.821Z,5.53
2022-09-07T06:13:10.318Z,5.93
2022-09-07T06:15:38.361Z,5.10
2022-09-07T06:18:06.661Z,5.95
2022-09-07T06:20:34.848Z,5.78
2022-09-07T06:23:10.536Z,5.65
2022-09-07T06:25:38.579Z,6.10
2022-09-07T06:28:06.836Z,5.70
2022-09-07T06:30:47.047Z,6.50
2022-09-07T06:33:24.663Z,6.90
2022-09-07T06:35:57.424Z,6.03
2022-09-07T06:38:31.641Z,6.57
2022-09-07T06:44:00.903Z,7.15
2022-09-07T06:49:17.384Z,7.80
2022-09-07T06:51:45.410Z,7.97
2022-09-07T07:00:17.248Z,8.35
2022-09-07T07:02:45.357Z,8.40
2022-09-07T07:05:23.676Z,8.82
2022-09-07T07:07:51.721Z,8.48
2022-09-07T07:10:24.257Z,8.52
2022-09-07T07:12:57.340Z,8.35
2022-09-07T07:15:29.144Z,8.97
2022-09-07T07:18:02.628Z,9.10
2022-09-07T07:20:47.283Z,8.23
2022-09-07T07:23:21.924Z,8.63
2022-09-07T07:25:52.913Z,9.32
2022-09-07T07:31:18.208Z,8.80
2022-09-07T07:33:48.143Z,8.95
2022-09-07T07:36:17.837Z,8.50
2022-09-07T07:39:03.355Z,9.13
2022-09-07T07:42:00.301Z,9.02
2022-09-07T07:44:43.997Z,9.15
2022-09-07T07:47:13.406Z,8.98
2022-09-07T07:50:30.495Z,8.98
2022-09-07T07:52:50.410Z,10.05
2022-09-07T07:58:09.585Z,10.77
2022-09-07T08:00:53.397Z,11.15
2022-09-07T08:03:30.495Z,10.15
2022-09-07T08:06:05.100Z,11.60
2022-09-07T08:08:45.030Z,10.95
2022-09-07T08:11:14.846Z,11.43
2022-09-07T08:13:44.386Z,11.43
2022-09-07T08:16:13.461Z,11.55
2022-09-07T08:18:46.933Z,9.98
2022-09-07T08:21:16.764Z,11.15
2022-09-07T08:23:47.604Z,11.05
2022-09-07T08:26:18.827Z,11.38
2022-09-07T08:28:47.755Z,11.40
2022-09-07T08:31:27.389Z,12.38
2022-09-07T08:33:56.812Z,12.75
2022-09-07T08:36:24.783Z,13.10
2022-09-07T08:39:01.883Z,12.88
2022-09-07T08:42:08.134Z,13.77
2022-09-07T08:44:42.368Z,14.20
2022-09-07T08:50:03.359Z,14.52
2022-09-07T08:52:41.592Z,13.90
2022-09-07T08:55:16.531Z,12.93
2022-09-07T08:57:48.200Z,12.85
2022-09-07T09:00:18.167Z,14.02
2022-09-07T09:03:28.010Z,14.52
2022-09-07T09:05:56.311Z,14.48
2022-09-07T09:08:53.036Z,15.40
2022-09-07T09:11:35.927Z,14.50
2022-09-07T09:14:17.383Z,15.02
2022-09-07T09:16:50.811Z,14.48
2022-09-07T09:19:47.088Z,14.63
2022-09-07T09:22:31.474Z,14.68
2022-09-07T09:25:19.218Z,14.40
2022-09-07T09:27:47.714Z,14.80
2022-09-07T09:30:17.232Z,13.93
2022-09-07T09:32:47.491Z,13.45
2022-09-07T09:35:19.684Z,13.50
2022-09-07T09:37:49.039Z,14.50
2022-09-07T09:40:28.307Z,13.27
2022-09-07T09:43:07.822Z,12.68
2022-09-07T09:48:33.318Z,12.82
2022-09-07T09:54:02.702Z,14.40
2022-09-07T09:56:56.350Z,12.80
2022-09-07T10:05:35.757Z,11.00
2022-09-07T10:08:19.524Z,10.73
2022-09-07T10:11:13.655Z,11.38
2022-09-07T10:13:57.793Z,11.52
2022-09-07T10:16:47.799Z,12.02
2022-09-07T10:19:40.600Z,11.27
2022-09-07T10:22:33.794Z,11.55
2022-09-07T10:25:33.085Z,12.18
2022-09-07T10:28:17.422Z,12.10
2022-09-07T10:31:11.146Z,13.15
2022-09-07T10:36:46.224Z,11.68
2022-09-07T10:39:26.605Z,10.20
2022-09-07T10:42:03.789Z,11.65
2022-09-07T10:45:01.271Z,11.15
2022-09-07T10:47:39.532Z,9.73
2022-09-07T10:50:25.888Z,8.45
2022-09-07T10:56:21.204Z,6.03
2022-09-07T10:59:07.057Z,6.27
2022-09-07T11:01:46.287Z,6.25
2022-09-07T11:04:35.758Z,5.70
2022-09-07T11:07:22.564Z,5.70
2022-09-07T11:10:11.006Z,6.85
2022-09-07T11:12:44.617Z,5.30
2022-09-07T11:15:27.101Z,4.93
2022-09-07T11:18:00.945Z,4.70
2022-09-07T11:20:32.527Z,4.53
2022-09-07T11:23:13.569Z,4.15
2022-09-07T11:28:39.775Z,4.13
2022-09-07T11:31:19.617Z,3.45
2022-09-07T11:36:51.905Z,3.85
2022-09-07T11:39:26.143Z,3.90
2022-09-07T11:42:42.262Z,3.55
2022-09-07T11:44:56.958Z,3.13
2022-09-07T11:47:29.511Z,3.00
2022-09-07T11:50:02.282Z,3.20
2022-09-07T11:52:38.280Z,3.28
2022-09-07T11:55:11.153Z,2.72
2022-09-07T11:57:52.418Z,2.80
2022-09-07T12:00:33.630Z,3.00
2022-09-07T12:03:32.322Z,3.15
2022-09-07T12:07:00.642Z,2.80
2022-09-07T12:10:03.739Z,2.30
2022-09-07T12:13:03.600Z,2.60
2022-09-07T12:15:50.481Z,2.55
2022-09-07T12:18:51.870Z,2.90
2022-09-07T12:21:44.606Z,2.58
2022-09-07T12:27:47.972Z,2.58
2022-09-07T12:30:55.935Z,2.25
2022-09-07T12:33:36.586Z,2.85
2022-09-07T12:36:50.317Z,2.53
2022-09-07T12:39:44.183Z,2.42
2022-09-07T12:42:32.964Z,2.57
2022-09-07T12:45:40.887Z,2.22
2022-09-07T12:48:30.730Z,1.92
2022-09-07T12:51:05.491Z,2.17
2022-09-07T12:53:57.560Z,2.58
2022-09-07T12:56:36.277Z,1.88
2022-09-07T12:59:30.107Z,2.42
2022-09-07T13:02:12.691Z,2.53
2022-09-07T13:04:59.102Z,1.95
2022-09-07T13:08:26.654Z,2.60
2022-09-07T13:11:08.609Z,1.88
2022-09-07T13:17:15.921Z,1.88
2022-09-07T13:19:54.939Z,1.98
2022-09-07T13:23:17.319Z,2.00
2022-09-07T13:26:00.552Z,1.60
2022-09-07T13:28:56.006Z,1.05
2022-09-07T13:31:58.050Z,1.50
2022-09-07T13:34:56.710Z,1.27
2022-09-07T13:37:27.161Z,1.23
2022-09-07T13:39:58.617Z,1.20
2022-09-07T13:42:30.513Z,1.05
2022-09-07T13:45:12.261Z,1.73
2022-09-07T13:47:53.392Z,1.52
2022-09-07T13:50:40.594Z,1.40
2022-09-07T13:53:42.436Z,1.33
2022-09-07T13:56:34.148Z,1.40
2022-09-07T13:59:13.990Z,1.40
2022-09-07T14:01:47.211Z,1.23
2022-09-07T14:04:30.740Z,1.50
2022-09-07T14:07:06.777Z,1.05
2022-09-07T14:09:36.071Z,1.10
2022-09-07T14:12:19.260Z,1.42
2022-09-07T14:14:47.782Z,1.20
2022-09-07T14:17:28.882Z,1.20
2022-09-07T14:20:00.652Z,1.80
2022-09-07T14:22:37.702Z,1.08
2022-09-07T14:25:09.156Z,1.45
2022-09-07T14:27:40.723Z,2.30
2022-09-07T14:30:31.530Z,4.65
2022-09-07T14:33:17.345Z,6.05
2022-09-07T14:35:45.515Z,2.38
2022-09-07T14:39:03.993Z,3.15
2022-09-07T14:41:15.265Z,3.75
2022-09-07T14:44:03.239Z,1.80
2022-09-07T14:46:34.217Z,0.98
2022-09-07T14:49:23.036Z,1.02
2022-09-07T14:51:51.382Z,1.23
2022-09-07T14:54:32.908Z,1.23
2022-09-07T14:57:07.929Z,1.73
2022-09-07T15:02:36.725Z,1.50
2022-09-07T15:05:28.977Z,1.15
2022-09-07T15:08:05.066Z,1.55
2022-09-07T15:10:37.365Z,1.27
2022-09-07T15:13:07.275Z,1.30
2022-09-07T15:15:58.330Z,1.30
2022-09-07T15:18:55.070Z,1.38
2022-09-07T15:21:42.024Z,1.73
2022-09-07T15:24:10.608Z,1.60
2022-09-07T15:27:05.944Z,1.20
2022-09-07T15:29:34.027Z,1.20
2022-09-07T15:32:05.259Z,1.25
2022-09-07T15:34:36.008Z,1.55
2022-09-07T15:38:01.047Z,1.48
2022-09-07T15:39:53.026Z,1.15
2022-09-07T15:45:12.213Z,1.30
2022-09-07T15:47:57.284Z,2.10
2022-09-07T15:50:25.250Z,1.50
2022-09-07T15:52:56.111Z,1.55
2022-09-07T15:55:33.905Z,1.38
2022-09-07T15:58:11.810Z,1.38
2022-09-07T16:00:40.588Z,1.30
2022-09-07T16:03:19.793Z,1.40
2022-09-07T16:05:47.936Z,1.30
2022-09-07T16:08:25.974Z,0.90
2022-09-07T16:10:55.360Z,1.20
2022-09-07T16:13:24.715Z,1.27
2022-09-07T16:15:59.543Z,1.23
2022-09-07T16:18:31.153Z,1.40
2022-09-07T16:21:06.702Z,1.20
2022-09-07T16:23:34.756Z,1.55
2022-09-07T16:26:04.143Z,1.25
2022-09-07T16:28:43.073Z,1.20
2022-09-07T16:31:14.947Z,1.35
2022-09-07T16:33:44.354Z,1.40
2022-09-07T16:36:23.540Z,1.30
2022-09-07T16:39:07.399Z,1.50
2022-09-07T16:41:35.737Z,1.90
2022-09-07T16:44:03.982Z,1.20
2022-09-07T16:46:40.865Z,1.38
2022-09-07T16:49:11.329Z,1.20
2022-09-07T16:51:40.120Z,1.40
2022-09-07T16:54:17.105Z,1.35
2022-09-07T16:56:48.526Z,1.40
2022-09-07T16:59:18.342Z,1.23
2022-09-07T17:01:46.754Z,1.05
2022-09-07T17:04:27.477Z,1.30
2022-09-07T17:06:58.479Z,1.23
2022-09-07T17:09:29.611Z,1.92
2022-09-07T17:12:15.539Z,1.50
2022-09-07T17:14:43.530Z,1.30
2022-09-07T17:17:11.610Z,1.40
2022-09-07T17:19:50.875Z,1.13
2022-09-07T17:22:20.650Z,1.23
2022-09-07T17:24:48.661Z,1.20
2022-09-07T17:27:16.634Z,1.70
2022-09-07T17:29:54.063Z,1.50
2022-09-07T17:32:26.235Z,1.38
2022-09-07T17:34:56.364Z,1.58
2022-09-07T17:37:34.738Z,1.02
2022-09-07T17:40:05.722Z,1.73
2022-09-07T17:45:33.271Z,1.30
2022-09-07T17:48:01.265Z,1.67
2022-09-07T17:50:33.646Z,1.65
2022-09-07T17:53:01.619Z,1.52
2022-09-07T17:55:36.576Z,1.63
2022-09-07T17:58:07.317Z,1.85
2022-09-07T18:00:38.376Z,1.40
2022-09-07T18:03:15.817Z,1.38
2022-09-07T18:05:53.678Z,1.70
2022-09-07T18:08:21.902Z,1.40
2022-09-07T18:13:38.884Z,1.40
2022-09-07T18:16:29.830Z,1.98
2022-09-07T18:19:00.057Z,1.40
2022-09-07T18:21:40.927Z,1.73
2022-09-07T18:24:13.874Z,1.70
2022-09-07T18:26:42.397Z,1.88
2022-09-07T18:29:27.314Z,1.75
2022-09-07T18:32:09.809Z,2.05
2022-09-07T18:34:40.708Z,2.10
2022-09-07T18:37:12.218Z,1.50
2022-09-07T18:39:40.717Z,2.08
2022-09-07T18:42:09.439Z,2.60
2022-09-07T18:47:40.582Z,1.95
2022-09-07T18:50:09.219Z,1.80
2022-09-07T18:52:54.975Z,1.92
2022-09-07T18:55:39.545Z,1.77
2022-09-07T18:58:10.391Z,2.17
2022-09-07T19:00:44.729Z,2.20
2022-09-07T19:03:16.810Z,2.40
2022-09-07T19:05:50.326Z,2.78
2022-09-07T19:12:05.628Z,3.13
2022-09-07T19:17:04.349Z,3.03
2022-09-07T19:19:41.836Z,3.65
2022-09-07T19:22:12.840Z,2.97
2022-09-07T19:24:40.923Z,3.00
2022-09-07T19:27:13.198Z,3.50
2022-09-07T19:29:52.278Z,3.22
2022-09-07T19:32:20.696Z,2.15
2022-09-07T19:34:54.453Z,2.70
2022-09-07T19:37:25.332Z,2.58
2022-09-07T19:39:55.198Z,2.42
2022-09-07T19:42:25.426Z,2.25
2022-09-07T19:44:54.184Z,2.67
2022-09-07T19:47:23.417Z,2.95
2022-09-07T19:49:52.237Z,2.25
2022-09-07T19:52:20.350Z,2.33
2022-09-07T19:54:48.351Z,2.33
2022-09-07T19:57:16.346Z,2.25
2022-09-07T19:59:47.240Z,2.50
2022-09-07T20:02:15.255Z,2.55
2022-09-07T20:04:43.194Z,2.50
2022-09-07T20:07:12.454Z,2.55
2022-09-07T20:09:40.536Z,2.58
2022-09-07T20:12:19.146Z,2.60
2022-09-07T20:14:51.320Z,2.50
2022-09-07T20:17:19.313Z,2.88
2022-09-07T20:19:57.228Z,2.20
2022-09-07T20:22:28.589Z,2.00
2022-09-07T20:24:59.591Z,2.30
2022-09-07T20:27:28.745Z,2.30
2022-09-07T20:30:09.981Z,2.13
2022-09-07T20:32:41.107Z,2.10
2022-09-07T20:35:09.805Z,2.30
2022-09-07T20:37:49.822Z,1.90
2022-09-07T20:40:24.563Z,2.30
2022-09-07T20:42:52.548Z,2.10
2022-09-07T20:45:31.658Z,2.25
2022-09-07T20:47:59.915Z,1.80
2022-09-07T20:50:27.820Z,2.20
2022-09-07T20:52:56.144Z,2.13
2022-09-07T20:55:41.783Z,1.77
2022-09-07T20:58:12.908Z,2.10
2022-09-07T21:00:51.546Z,1.88
2022-09-07T21:03:19.725Z,1.90
2022-09-07T21:05:47.759Z,1.50
2022-09-07T21:08:16.656Z,1.75
2022-09-07T21:10:46.849Z,2.10
2022-09-07T21:13:26.571Z,1.90
2022-09-07T21:16:03.776Z,1.75
2022-09-07T21:18:38.561Z,1.88
2022-09-07T21:21:22.398Z,1.90
2022-09-07T21:24:04.027Z,2.20
2022-09-07T21:26:33.156Z,1.73
2022-09-07T21:29:16.843Z,1.90
2022-09-07T21:31:46.637Z,1.93
2022-09-07T21:34:15.890Z,1.95
2022-09-07T21:36:44.023Z,1.73
2022-09-07T21:39:18.497Z,1.90
2022-09-07T21:41:46.739Z,2.65
2022-09-07T21:44:18.311Z,2.15
2022-09-07T21:46:51.208Z,1.70
2022-09-07T21:49:19.200Z,2.38
2022-09-07T21:51:47.138Z,2.05
2022-09-07T21:54:15.219Z,1.85
2022-09-07T21:56:49.318Z,2.00
2022-09-07T21:59:17.280Z,2.00
2022-09-07T22:01:45.620Z,2.22
2022-09-07T22:04:18.185Z,1.92
2022-09-07T22:06:49.166Z,2.00
2022-09-07T22:09:20.599Z,1.95
2022-09-07T22:11:52.384Z,2.35
2022-09-07T22:14:23.478Z,1.77
2022-09-07T22:16:51.495Z,1.80
2022-09-07T22:19:24.220Z,1.60
2022-09-07T22:21:56.595Z,1.98
2022-09-07T22:24:28.168Z,1.63
2022-09-07T22:27:01.002Z,2.00
2022-09-07T22:29:38.686Z,1.75
2022-09-07T22:32:09.495Z,1.80
2022-09-07T22:34:41.853Z,1.80
2022-09-07T22:37:10.964Z,1.92
2022-09-07T22:39:39.074Z,1.75
2022-09-07T22:42:10.032Z,2.03
2022-09-07T22:44:41.029Z,1.60
2022-09-07T22:47:10.221Z,1.80
2022-09-07T22:49:43.745Z,1.83
2022-09-07T22:52:11.701Z,2.20
2022-09-07T22:54:39.718Z,1.65
2022-09-07T22:57:08.064Z,1.88
2022-09-07T22:59:36.089Z,1.98
2022-09-07T23:02:04.081Z,1.70
2022-09-07T23:04:32.205Z,2.13
2022-09-07T23:07:01.662Z,2.20
2022-09-07T23:09:29.746Z,2.30
2022-09-07T23:11:57.790Z,1.90
2022-09-07T23:14:34.878Z,1.95
2022-09-07T23:17:05.707Z,1.63
2022-09-07T23:19:36.770Z,1.60
2022-09-07T23:22:06.483Z,1.92
2022-09-07T23:24:42.897Z,1.90
2022-09-07T23:27:16.686Z,1.90
2022-09-07T23:29:47.785Z,1.85
2022-09-07T23:32:25.837Z,1.80
2022-09-07T23:34:56.610Z,1.77
2022-09-07T23:37:29.075Z,2.05
2022-09-07T23:39:57.043Z,2.22
2022-09-07T23:42:35.768Z,1.73
2022-09-07T23:45:08.800Z,1.83
2022-09-07T23:47:46.039Z,2.00
2022-09-07T23:50:23.216Z,1.83
2022-09-07T23:52:58.677Z,1.70
2022-09-07T23:55:26.963Z,1.90
2022-09-07T23:57:58.137Z,1.70
